Mannheim-City Airport EDFM

Flugplatz Daten

Name: Mannheim-City Airport

Ident: EDFM

Lat: 49,47305679

Long: 8,514166832

Platzhöhe: 308 ft

IataCode: MHG

City: Mannheim

Metar

2021/10/25 18:50
EDFM 251850Z VRB02KT CAVOK 08/06 Q1019

Taf

2012/03/06 06:30
TAF EDFM 060519Z 0606/0621 15004KT 9999 FEW040
Gewünschte Webcam nicht vorhanden? Dann fügen Sie eine hinzu. Sie wird dann so schnell wie möglich freigeschaltet
Url: Title: